sensor_id;sensor_type;location;lat;lon;timestamp;pressure;altitude;pressure_sealevel;temperature;humidity
51227;BME280;42714;48.260;10.980;2023-12-20T00:03:05;970.4;;;5.9;56.2
51227;BME280;42714;48.260;10.980;2023-12-20T00:08:06;970.4;;;5.9;56.4
51227;BME280;42714;48.260;10.980;2023-12-20T00:13:07;970.3;;;5.9;56.8
51227;BME280;42714;48.260;10.980;2023-12-20T00:18:08;970.2;;;5.9;56.9
51227;BME280;42714;48.260;10.980;2023-12-20T00:23:09;970.0;;;5.9;57.1
51227;BME280;42714;48.260;10.980;2023-12-20T00:28:10;970.0;;;5.8;57.4
51227;BME280;42714;48.260;10.980;2023-12-20T00:33:11;969.9;;;5.8;58.0
51227;BME280;42714;48.260;10.980;2023-12-20T00:38:12;970.1;;;5.8;58.9
51227;BME280;42714;48.260;10.980;2023-12-20T00:43:13;970.3;;;5.8;58.6
51227;BME280;42714;48.260;10.980;2023-12-20T00:48:14;970.2;;;6.0;57.7
51227;BME280;42714;48.260;10.980;2023-12-20T00:53:15;970.1;;;6.3;57.3
51227;BME280;42714;48.260;10.980;2023-12-20T00:58:16;970.0;;;6.3;57.9
51227;BME280;42714;48.260;10.980;2023-12-20T01:03:17;970.0;;;6.3;58.4
51227;BME280;42714;48.260;10.980;2023-12-20T01:08:18;970.0;;;6.3;58.5
51227;BME280;42714;48.260;10.980;2023-12-20T01:13:19;969.9;;;6.1;58.3
51227;BME280;42714;48.260;10.980;2023-12-20T01:18:20;969.8;;;6.1;58.4
51227;BME280;42714;48.260;10.980;2023-12-20T01:23:21;969.8;;;6.1;58.9
51227;BME280;42714;48.260;10.980;2023-12-20T01:28:22;969.8;;;5.9;59.8
51227;BME280;42714;48.260;10.980;2023-12-20T01:33:23;969.7;;;5.9;60.4
51227;BME280;42714;48.260;10.980;2023-12-20T01:38:24;969.6;;;5.8;60.8
51227;BME280;42714;48.260;10.980;2023-12-20T01:43:25;969.6;;;5.8;61.2
51227;BME280;42714;48.260;10.980;2023-12-20T01:48:26;969.4;;;5.9;61.4
51227;BME280;42714;48.260;10.980;2023-12-20T01:53:27;969.4;;;5.9;61.7
51227;BME280;42714;48.260;10.980;2023-12-20T01:58:28;969.3;;;5.8;62.2
51227;BME280;42714;48.260;10.980;2023-12-20T02:03:29;969.1;;;5.8;62.7
51227;BME280;42714;48.260;10.980;2023-12-20T02:08:30;969.2;;;5.7;63.4
51227;BME280;42714;48.260;10.980;2023-12-20T02:13:31;969.2;;;5.8;64.0
51227;BME280;42714;48.260;10.980;2023-12-20T02:18:32;969.1;;;5.9;64.4
51227;BME280;42714;48.260;10.980;2023-12-20T02:23:33;969.1;;;5.9;65.0
51227;BME280;42714;48.260;10.980;2023-12-20T02:28:34;969.2;;;6.0;65.6
51227;BME280;42714;48.260;10.980;2023-12-20T02:33:35;969.1;;;6.1;65.9
51227;BME280;42714;48.260;10.980;2023-12-20T02:38:36;969.1;;;6.2;66.3
51227;BME280;42714;48.260;10.980;2023-12-20T02:43:37;969.1;;;6.3;66.6
51227;BME280;42714;48.260;10.980;2023-12-20T02:48:38;969.0;;;6.2;67.0
51227;BME280;42714;48.260;10.980;2023-12-20T02:53:39;969.1;;;6.3;67.6
51227;BME280;42714;48.260;10.980;2023-12-20T02:58:40;969.1;;;6.3;67.7
51227;BME280;42714;48.260;10.980;2023-12-20T03:03:41;969.2;;;6.3;68.0
51227;BME280;42714;48.260;10.980;2023-12-20T03:08:42;969.3;;;6.3;68.7
51227;BME280;42714;48.260;10.980;2023-12-20T03:13:43;969.3;;;6.1;70.6
51227;BME280;42714;48.260;10.980;2023-12-20T03:18:44;969.4;;;5.8;73.1
51227;BME280;42714;48.260;10.980;2023-12-20T03:23:45;969.5;;;5.6;76.1
51227;BME280;42714;48.260;10.980;2023-12-20T03:28:46;969.5;;;5.4;78.9
51227;BME280;42714;48.260;10.980;2023-12-20T03:33:47;969.6;;;5.3;81.5
51227;BME280;42714;48.260;10.980;2023-12-20T03:38:48;969.6;;;5.2;83.0
51227;BME280;42714;48.260;10.980;2023-12-20T03:43:49;969.6;;;5.1;84.2
51227;BME280;42714;48.260;10.980;2023-12-20T03:48:50;969.7;;;5.1;85.0
51227;BME280;42714;48.260;10.980;2023-12-20T03:53:51;969.7;;;5.1;85.6
51227;BME280;42714;48.260;10.980;2023-12-20T03:58:52;969.6;;;5.0;86.2
51227;BME280;42714;48.260;10.980;2023-12-20T04:03:53;969.6;;;5.0;86.7
51227;BME280;42714;48.260;10.980;2023-12-20T04:08:54;969.6;;;5.0;87.3
51227;BME280;42714;48.260;10.980;2023-12-20T04:13:55;969.6;;;5.0;87.9
51227;BME280;42714;48.260;10.980;2023-12-20T04:18:56;969.7;;;5.0;88.8
51227;BME280;42714;48.260;10.980;2023-12-20T04:23:57;969.7;;;5.0;89.5
51227;BME280;42714;48.260;10.980;2023-12-20T04:28:58;969.8;;;5.1;90.2
51227;BME280;42714;48.260;10.980;2023-12-20T04:39:00;969.9;;;4.9;91.5
51227;BME280;42714;48.260;10.980;2023-12-20T04:44:01;969.9;;;5.0;92.0
51227;BME280;42714;48.260;10.980;2023-12-20T04:49:02;970.0;;;5.0;92.4
51227;BME280;42714;48.260;10.980;2023-12-20T04:54:03;970.0;;;4.9;92.7
51227;BME280;42714;48.260;10.980;2023-12-20T04:59:04;970.1;;;4.9;93.1
51227;BME280;42714;48.260;10.980;2023-12-20T05:04:05;970.1;;;4.9;93.5
51227;BME280;42714;48.260;10.980;2023-12-20T05:09:06;970.1;;;5.0;93.7
51227;BME280;42714;48.260;10.980;2023-12-20T05:14:07;970.2;;;5.0;93.8
51227;BME280;42714;48.260;10.980;2023-12-20T05:19:08;970.1;;;4.8;94.1
51227;BME280;42714;48.260;10.980;2023-12-20T05:24:09;970.2;;;4.8;94.4
51227;BME280;42714;48.260;10.980;2023-12-20T05:29:10;970.3;;;4.8;94.5
51227;BME280;42714;48.260;10.980;2023-12-20T05:34:11;970.4;;;4.7;94.7
51227;BME280;42714;48.260;10.980;2023-12-20T05:39:12;970.5;;;4.7;94.8
51227;BME280;42714;48.260;10.980;2023-12-20T05:44:13;970.5;;;4.7;94.8
51227;BME280;42714;48.260;10.980;2023-12-20T05:49:14;970.6;;;4.6;94.8
51227;BME280;42714;48.260;10.980;2023-12-20T05:54:15;970.6;;;4.6;94.6
51227;BME280;42714;48.260;10.980;2023-12-20T05:59:16;970.7;;;4.5;94.7
51227;BME280;42714;48.260;10.980;2023-12-20T06:04:17;970.8;;;4.4;94.5
51227;BME280;42714;48.260;10.980;2023-12-20T06:09:18;971.0;;;4.4;94.6
51227;BME280;42714;48.260;10.980;2023-12-20T06:14:19;971.0;;;4.4;94.4
51227;BME280;42714;48.260;10.980;2023-12-20T06:19:20;971.1;;;4.2;94.3
51227;BME280;42714;48.260;10.980;2023-12-20T06:24:21;971.2;;;4.2;94.2
51227;BME280;42714;48.260;10.980;2023-12-20T06:29:22;971.1;;;4.2;94.1
51227;BME280;42714;48.260;10.980;2023-12-20T06:34:23;970.9;;;4.0;94.3
51227;BME280;42714;48.260;10.980;2023-12-20T06:39:24;971.1;;;4.0;94.3
51227;BME280;42714;48.260;10.980;2023-12-20T06:44:25;971.2;;;4.0;94.4
51227;BME280;42714;48.260;10.980;2023-12-20T06:49:26;971.3;;;4.1;94.6
51227;BME280;42714;48.260;10.980;2023-12-20T06:54:27;971.3;;;4.1;94.7
51227;BME280;42714;48.260;10.980;2023-12-20T06:59:29;971.4;;;4.1;94.8
51227;BME280;42714;48.260;10.980;2023-12-20T07:04:29;971.4;;;4.1;94.9
51227;BME280;42714;48.260;10.980;2023-12-20T07:09:30;971.5;;;4.1;95.1
51227;BME280;42714;48.260;10.980;2023-12-20T07:14:31;971.6;;;4.1;95.2
51227;BME280;42714;48.260;10.980;2023-12-20T07:19:32;971.7;;;4.2;95.2
51227;BME280;42714;48.260;10.980;2023-12-20T07:24:33;971.6;;;4.2;95.4
51227;BME280;42714;48.260;10.980;2023-12-20T07:29:34;971.6;;;4.2;95.5
51227;BME280;42714;48.260;10.980;2023-12-20T07:34:35;971.6;;;4.2;95.7
51227;BME280;42714;48.260;10.980;2023-12-20T07:39:39;971.7;;;4.3;95.8
51227;BME280;42714;48.260;10.980;2023-12-20T07:44:37;971.7;;;4.3;95.6
51227;BME280;42714;48.260;10.980;2023-12-20T07:49:38;971.8;;;4.3;95.6
51227;BME280;42714;48.260;10.980;2023-12-20T07:54:39;971.9;;;4.4;95.5
51227;BME280;42714;48.260;10.980;2023-12-20T07:59:40;971.9;;;4.4;95.6
51227;BME280;42714;48.260;10.980;2023-12-20T08:04:41;972.0;;;4.4;95.5
51227;BME280;42714;48.260;10.980;2023-12-20T08:09:42;972.1;;;4.4;95.7
51227;BME280;42714;48.260;10.980;2023-12-20T08:14:43;972.1;;;4.4;95.6
51227;BME280;42714;48.260;10.980;2023-12-20T08:19:44;972.1;;;4.5;95.5
51227;BME280;42714;48.260;10.980;2023-12-20T08:24:45;972.1;;;4.6;95.3
51227;BME280;42714;48.260;10.980;2023-12-20T08:29:46;972.1;;;4.7;95.3
51227;BME280;42714;48.260;10.980;2023-12-20T08:34:47;972.1;;;4.7;95.2
51227;BME280;42714;48.260;10.980;2023-12-20T08:39:48;972.1;;;4.8;95.0
51227;BME280;42714;48.260;10.980;2023-12-20T08:44:49;972.2;;;4.8;94.9
51227;BME280;42714;48.260;10.980;2023-12-20T08:49:52;972.2;;;4.9;94.6
51227;BME280;42714;48.260;10.980;2023-12-20T08:54:51;972.2;;;4.9;94.5
51227;BME280;42714;48.260;10.980;2023-12-20T08:59:52;972.2;;;4.8;94.4
51227;BME280;42714;48.260;10.980;2023-12-20T09:04:53;972.2;;;4.8;94.3
51227;BME280;42714;48.260;10.980;2023-12-20T09:09:54;972.1;;;4.9;94.2
51227;BME280;42714;48.260;10.980;2023-12-20T09:14:55;972.1;;;4.9;94.2
51227;BME280;42714;48.260;10.980;2023-12-20T09:19:56;972.0;;;4.8;94.2
51227;BME280;42714;48.260;10.980;2023-12-20T09:24:57;972.0;;;4.9;94.2
51227;BME280;42714;48.260;10.980;2023-12-20T09:29:58;972.0;;;5.2;94.0
51227;BME280;42714;48.260;10.980;2023-12-20T09:34:59;972.0;;;5.2;93.8
51227;BME280;42714;48.260;10.980;2023-12-20T09:40:00;972.0;;;5.3;93.8
51227;BME280;42714;48.260;10.980;2023-12-20T09:45:01;972.0;;;5.3;93.5
51227;BME280;42714;48.260;10.980;2023-12-20T09:50:02;972.1;;;5.4;93.5
51227;BME280;42714;48.260;10.980;2023-12-20T09:55:04;971.9;;;5.4;93.5
51227;BME280;42714;48.260;10.980;2023-12-20T10:05:06;971.8;;;5.9;93.2
51227;BME280;42714;48.260;10.980;2023-12-20T10:10:07;971.8;;;6.0;92.4
51227;BME280;42714;48.260;10.980;2023-12-20T10:15:08;971.8;;;6.0;91.7
51227;BME280;42714;48.260;10.980;2023-12-20T10:20:09;971.7;;;6.1;91.0
51227;BME280;42714;48.260;10.980;2023-12-20T10:25:09;971.6;;;6.2;90.3
51227;BME280;42714;48.260;10.980;2023-12-20T10:35:11;971.7;;;6.7;87.9
51227;BME280;42714;48.260;10.980;2023-12-20T10:40:12;971.7;;;6.9;86.0
51227;BME280;42714;48.260;10.980;2023-12-20T10:45:13;971.6;;;6.7;83.5
51227;BME280;42714;48.260;10.980;2023-12-20T10:50:14;971.5;;;6.7;82.9
51227;BME280;42714;48.260;10.980;2023-12-20T10:55:15;971.4;;;7.3;81.2
51227;BME280;42714;48.260;10.980;2023-12-20T11:00:17;971.4;;;7.4;79.4
51227;BME280;42714;48.260;10.980;2023-12-20T11:05:21;971.5;;;7.0;78.6
51227;BME280;42714;48.260;10.980;2023-12-20T11:10:20;971.5;;;7.0;79.5
51227;BME280;42714;48.260;10.980;2023-12-20T11:15:20;971.4;;;6.9;79.9
51227;BME280;42714;48.260;10.980;2023-12-20T11:20:22;971.4;;;6.8;80.5
51227;BME280;42714;48.260;10.980;2023-12-20T11:25:21;971.4;;;6.7;81.1
51227;BME280;42714;48.260;10.980;2023-12-20T11:30:23;971.3;;;6.8;81.3
51227;BME280;42714;48.260;10.980;2023-12-20T11:35:24;971.3;;;6.7;81.1
51227;BME280;42714;48.260;10.980;2023-12-20T11:40:25;971.3;;;6.8;81.2
51227;BME280;42714;48.260;10.980;2023-12-20T11:45:26;971.2;;;6.8;80.8
51227;BME280;42714;48.260;10.980;2023-12-20T11:50:27;971.3;;;6.7;79.9
51227;BME280;42714;48.260;10.980;2023-12-20T11:55:28;971.3;;;6.8;80.0
51227;BME280;42714;48.260;10.980;2023-12-20T12:00:29;971.3;;;6.7;80.0
51227;BME280;42714;48.260;10.980;2023-12-20T12:05:30;971.3;;;6.3;80.0
51227;BME280;42714;48.260;10.980;2023-12-20T12:10:31;971.3;;;5.9;81.3
51227;BME280;42714;48.260;10.980;2023-12-20T12:15:32;971.4;;;5.6;83.7
51227;BME280;42714;48.260;10.980;2023-12-20T12:20:33;971.3;;;5.5;84.8
51227;BME280;42714;48.260;10.980;2023-12-20T12:25:35;971.3;;;5.4;84.9
51227;BME280;42714;48.260;10.980;2023-12-20T12:30:35;971.3;;;5.5;85.7
51227;BME280;42714;48.260;10.980;2023-12-20T12:35:36;971.2;;;5.4;84.8
51227;BME280;42714;48.260;10.980;2023-12-20T12:40:37;971.2;;;5.6;84.5
51227;BME280;42714;48.260;10.980;2023-12-20T12:45:38;971.2;;;5.7;83.4
51227;BME280;42714;48.260;10.980;2023-12-20T12:50:39;971.2;;;6.0;81.4
51227;BME280;42714;48.260;10.980;2023-12-20T12:55:40;971.2;;;6.0;79.7
51227;BME280;42714;48.260;10.980;2023-12-20T13:00:41;971.3;;;5.9;78.9
51227;BME280;42714;48.260;10.980;2023-12-20T13:05:42;971.3;;;5.8;78.5
51227;BME280;42714;48.260;10.980;2023-12-20T13:10:43;971.2;;;5.8;78.0
51227;BME280;42714;48.260;10.980;2023-12-20T13:15:44;971.1;;;5.9;77.9
51227;BME280;42714;48.260;10.980;2023-12-20T13:20:45;971.1;;;5.8;77.0
51227;BME280;42714;48.260;10.980;2023-12-20T13:25:46;971.1;;;6.0;76.5
51227;BME280;42714;48.260;10.980;2023-12-20T13:30:47;971.1;;;6.0;76.1
51227;BME280;42714;48.260;10.980;2023-12-20T13:35:48;971.1;;;6.0;75.8
51227;BME280;42714;48.260;10.980;2023-12-20T13:40:49;971.3;;;6.0;75.9
51227;BME280;42714;48.260;10.980;2023-12-20T13:45:50;971.4;;;5.9;75.5
51227;BME280;42714;48.260;10.980;2023-12-20T13:50:51;971.4;;;5.9;75.3
51227;BME280;42714;48.260;10.980;2023-12-20T13:55:52;971.4;;;5.9;75.1
51227;BME280;42714;48.260;10.980;2023-12-20T14:00:53;971.4;;;5.9;74.9
51227;BME280;42714;48.260;10.980;2023-12-20T14:06:07;971.4;;;5.8;74.2
51227;BME280;42714;48.260;10.980;2023-12-20T14:10:55;971.5;;;5.8;74.1
51227;BME280;42714;48.260;10.980;2023-12-20T14:15:56;971.5;;;5.8;73.1
51227;BME280;42714;48.260;10.980;2023-12-20T14:20:57;971.6;;;5.7;71.8
51227;BME280;42714;48.260;10.980;2023-12-20T14:25:58;971.5;;;6.2;70.0
51227;BME280;42714;48.260;10.980;2023-12-20T14:30:59;971.5;;;6.5;68.0
51227;BME280;42714;48.260;10.980;2023-12-20T14:36:00;971.5;;;5.8;68.7
51227;BME280;42714;48.260;10.980;2023-12-20T14:41:01;971.6;;;5.2;71.0
51227;BME280;42714;48.260;10.980;2023-12-20T14:46:02;971.6;;;4.9;72.7
51227;BME280;42714;48.260;10.980;2023-12-20T14:51:03;971.7;;;4.6;74.0
51227;BME280;42714;48.260;10.980;2023-12-20T14:56:05;971.7;;;4.4;74.8
51227;BME280;42714;48.260;10.980;2023-12-20T15:01:05;971.7;;;4.3;75.8
51227;BME280;42714;48.260;10.980;2023-12-20T15:06:06;971.7;;;4.2;76.7
51227;BME280;42714;48.260;10.980;2023-12-20T15:11:07;971.8;;;3.9;77.4
51227;BME280;42714;48.260;10.980;2023-12-20T15:16:08;971.8;;;3.8;77.9
51227;BME280;42714;48.260;10.980;2023-12-20T15:21:09;971.7;;;3.8;78.1
51227;BME280;42714;48.260;10.980;2023-12-20T15:26:10;971.7;;;3.8;77.6
51227;BME280;42714;48.260;10.980;2023-12-20T15:31:11;971.6;;;3.7;77.8
51227;BME280;42714;48.260;10.980;2023-12-20T15:36:12;971.4;;;3.5;78.3
51227;BME280;42714;48.260;10.980;2023-12-20T15:46:14;971.6;;;3.1;80.5
51227;BME280;42714;48.260;10.980;2023-12-20T15:51:15;971.7;;;3.0;81.2
51227;BME280;42714;48.260;10.980;2023-12-20T15:56:16;971.7;;;3.0;81.3
51227;BME280;42714;48.260;10.980;2023-12-20T16:01:17;971.7;;;2.9;81.3
51227;BME280;42714;48.260;10.980;2023-12-20T16:06:18;971.8;;;2.8;80.4
51227;BME280;42714;48.260;10.980;2023-12-20T16:11:19;971.9;;;2.9;79.3
51227;BME280;42714;48.260;10.980;2023-12-20T16:16:20;972.0;;;2.8;79.0
51227;BME280;42714;48.260;10.980;2023-12-20T16:21:21;972.1;;;2.8;79.2
51227;BME280;42714;48.260;10.980;2023-12-20T16:26:22;972.2;;;2.8;79.6
51227;BME280;42714;48.260;10.980;2023-12-20T16:31:23;972.1;;;2.9;79.8
51227;BME280;42714;48.260;10.980;2023-12-20T16:36:24;972.1;;;3.2;79.1
51227;BME280;42714;48.260;10.980;2023-12-20T16:41:25;972.0;;;3.4;78.3
51227;BME280;42714;48.260;10.980;2023-12-20T16:46:26;972.0;;;3.5;77.6
51227;BME280;42714;48.260;10.980;2023-12-20T16:51:27;971.9;;;3.7;76.2
51227;BME280;42714;48.260;10.980;2023-12-20T16:56:28;971.8;;;3.8;75.3
51227;BME280;42714;48.260;10.980;2023-12-20T17:01:29;971.8;;;3.9;74.8
51227;BME280;42714;48.260;10.980;2023-12-20T17:06:30;971.9;;;4.0;73.9
51227;BME280;42714;48.260;10.980;2023-12-20T17:11:31;971.8;;;4.0;72.6
51227;BME280;42714;48.260;10.980;2023-12-20T17:16:32;971.8;;;4.1;72.2
51227;BME280;42714;48.260;10.980;2023-12-20T17:21:33;971.7;;;4.0;71.7
51227;BME280;42714;48.260;10.980;2023-12-20T17:26:34;971.6;;;3.8;71.7
51227;BME280;42714;48.260;10.980;2023-12-20T17:31:35;971.7;;;3.8;72.1
51227;BME280;42714;48.260;10.980;2023-12-20T17:36:39;971.7;;;3.8;72.2
51227;BME280;42714;48.260;10.980;2023-12-20T17:41:37;971.8;;;3.8;71.9
51227;BME280;42714;48.260;10.980;2023-12-20T17:46:38;971.8;;;3.8;71.4
51227;BME280;42714;48.260;10.980;2023-12-20T17:51:39;971.7;;;3.9;71.2
51227;BME280;42714;48.260;10.980;2023-12-20T17:56:40;971.7;;;3.9;71.1
51227;BME280;42714;48.260;10.980;2023-12-20T18:01:41;971.8;;;3.9;71.2
51227;BME280;42714;48.260;10.980;2023-12-20T18:06:42;971.9;;;3.9;72.2
51227;BME280;42714;48.260;10.980;2023-12-20T18:11:43;972.0;;;3.9;71.6
51227;BME280;42714;48.260;10.980;2023-12-20T18:16:44;972.1;;;3.8;71.4
51227;BME280;42714;48.260;10.980;2023-12-20T18:21:45;972.2;;;3.8;71.3
51227;BME280;42714;48.260;10.980;2023-12-20T18:26:46;972.3;;;3.8;71.7
51227;BME280;42714;48.260;10.980;2023-12-20T18:31:47;972.3;;;3.8;71.5
51227;BME280;42714;48.260;10.980;2023-12-20T18:36:48;972.3;;;3.8;71.3
51227;BME280;42714;48.260;10.980;2023-12-20T18:41:49;972.3;;;3.8;71.5
51227;BME280;42714;48.260;10.980;2023-12-20T18:46:50;972.1;;;3.7;71.3
51227;BME280;42714;48.260;10.980;2023-12-20T18:51:51;972.1;;;3.7;71.4
51227;BME280;42714;48.260;10.980;2023-12-20T18:56:52;972.0;;;3.7;71.4
51227;BME280;42714;48.260;10.980;2023-12-20T19:01:53;971.9;;;3.8;71.3
51227;BME280;42714;48.260;10.980;2023-12-20T19:06:54;971.9;;;3.9;71.3
51227;BME280;42714;48.260;10.980;2023-12-20T19:11:55;971.8;;;3.9;71.5
51227;BME280;42714;48.260;10.980;2023-12-20T19:16:56;971.8;;;3.9;72.0
51227;BME280;42714;48.260;10.980;2023-12-20T19:21:57;971.8;;;4.0;72.4
51227;BME280;42714;48.260;10.980;2023-12-20T19:26:58;971.9;;;4.0;72.4
51227;BME280;42714;48.260;10.980;2023-12-20T19:31:59;971.8;;;4.1;72.6
51227;BME280;42714;48.260;10.980;2023-12-20T19:37:00;971.7;;;4.2;73.1
51227;BME280;42714;48.260;10.980;2023-12-20T19:42:01;971.7;;;4.1;73.8
51227;BME280;42714;48.260;10.980;2023-12-20T19:47:02;971.7;;;4.1;74.4
51227;BME280;42714;48.260;10.980;2023-12-20T19:52:05;971.6;;;4.0;74.8
51227;BME280;42714;48.260;10.980;2023-12-20T19:57:06;971.5;;;4.1;74.8
51227;BME280;42714;48.260;10.980;2023-12-20T20:02:07;971.4;;;4.1;74.5
51227;BME280;42714;48.260;10.980;2023-12-20T20:07:08;971.4;;;4.0;73.7
51227;BME280;42714;48.260;10.980;2023-12-20T20:12:09;971.3;;;4.1;73.0
51227;BME280;42714;48.260;10.980;2023-12-20T20:17:10;971.3;;;4.1;72.1
51227;BME280;42714;48.260;10.980;2023-12-20T20:22:11;971.3;;;4.1;71.9
51227;BME280;42714;48.260;10.980;2023-12-20T20:27:12;971.3;;;4.1;71.6
51227;BME280;42714;48.260;10.980;2023-12-20T20:32:13;971.2;;;4.1;71.7
51227;BME280;42714;48.260;10.980;2023-12-20T20:37:14;971.2;;;4.1;71.9
51227;BME280;42714;48.260;10.980;2023-12-20T20:42:15;971.2;;;4.1;72.1
51227;BME280;42714;48.260;10.980;2023-12-20T20:47:16;971.2;;;4.0;72.5
51227;BME280;42714;48.260;10.980;2023-12-20T20:52:17;971.2;;;3.9;72.8
51227;BME280;42714;48.260;10.980;2023-12-20T20:57:18;971.1;;;4.0;73.1
51227;BME280;42714;48.260;10.980;2023-12-20T21:02:19;971.1;;;3.9;73.4
51227;BME280;42714;48.260;10.980;2023-12-20T21:07:20;971.2;;;4.0;73.3
51227;BME280;42714;48.260;10.980;2023-12-20T21:12:21;971.2;;;3.9;74.1
51227;BME280;42714;48.260;10.980;2023-12-20T21:17:22;971.2;;;3.8;75.2
51227;BME280;42714;48.260;10.980;2023-12-20T21:22:23;971.3;;;3.7;76.3
51227;BME280;42714;48.260;10.980;2023-12-20T21:27:24;971.2;;;3.6;77.2
51227;BME280;42714;48.260;10.980;2023-12-20T21:32:25;971.1;;;3.5;78.2
51227;BME280;42714;48.260;10.980;2023-12-20T21:37:26;971.0;;;3.6;78.8
51227;BME280;42714;48.260;10.980;2023-12-20T21:42:27;970.8;;;3.5;78.9
51227;BME280;42714;48.260;10.980;2023-12-20T21:47:28;970.9;;;3.5;79.4
51227;BME280;42714;48.260;10.980;2023-12-20T21:52:29;970.9;;;3.5;79.8
51227;BME280;42714;48.260;10.980;2023-12-20T21:57:30;970.9;;;3.5;79.8
51227;BME280;42714;48.260;10.980;2023-12-20T22:02:31;970.8;;;3.6;79.3
51227;BME280;42714;48.260;10.980;2023-12-20T22:07:32;970.9;;;3.7;79.2
51227;BME280;42714;48.260;10.980;2023-12-20T22:12:33;970.9;;;3.7;79.3
51227;BME280;42714;48.260;10.980;2023-12-20T22:17:34;970.8;;;3.7;78.9
51227;BME280;42714;48.260;10.980;2023-12-20T22:22:35;970.6;;;3.7;78.5
51227;BME280;42714;48.260;10.980;2023-12-20T22:27:36;970.3;;;3.8;78.1
51227;BME280;42714;48.260;10.980;2023-12-20T22:32:37;970.4;;;3.8;77.5
51227;BME280;42714;48.260;10.980;2023-12-20T22:37:38;970.4;;;3.8;76.7
